sensor_id;sensor_type;location;lat;lon;timestamp;pressure;altitude;pressure_sealevel;temperature;humidity
48053;BME280;33824;51.600;5.718;2023-02-03T00:01:49;102328.09;;;9.44;99.52
48053;BME280;33824;51.600;5.718;2023-02-03T00:04:14;102324.84;;;9.41;100.00
48053;BME280;33824;51.600;5.718;2023-02-03T00:06:41;102321.81;;;9.45;99.73
48053;BME280;33824;51.600;5.718;2023-02-03T00:09:06;102317.34;;;9.46;99.60
48053;BME280;33824;51.600;5.718;2023-02-03T00:11:35;102309.81;;;9.51;99.19
48053;BME280;33824;51.600;5.718;2023-02-03T00:14:01;102304.59;;;9.49;99.42
48053;BME280;33824;51.600;5.718;2023-02-03T00:16:27;102294.91;;;9.48;99.31
48053;BME280;33824;51.600;5.718;2023-02-03T00:18:52;102310.03;;;9.48;99.21
48053;BME280;33824;51.600;5.718;2023-02-03T00:21:18;102310.31;;;9.45;99.60
48053;BME280;33824;51.600;5.718;2023-02-03T00:23:44;102329.69;;;9.47;99.38
48053;BME280;33824;51.600;5.718;2023-02-03T00:26:12;102324.34;;;9.47;99.08
48053;BME280;33824;51.600;5.718;2023-02-03T00:28:40;102325.91;;;9.49;99.12
48053;BME280;33824;51.600;5.718;2023-02-03T00:31:16;102335.78;;;9.38;98.81
48053;BME280;33824;51.600;5.718;2023-02-03T00:33:42;102332.06;;;9.50;98.92
48053;BME280;33824;51.600;5.718;2023-02-03T00:36:08;102341.59;;;9.52;98.89
48053;BME280;33824;51.600;5.718;2023-02-03T00:38:34;102340.06;;;9.50;99.09
48053;BME280;33824;51.600;5.718;2023-02-03T00:40:59;102341.88;;;9.49;98.92
48053;BME280;33824;51.600;5.718;2023-02-03T00:43:25;102344.66;;;9.48;99.35
48053;BME280;33824;51.600;5.718;2023-02-03T00:45:51;102337.25;;;9.51;98.97
48053;BME280;33824;51.600;5.718;2023-02-03T00:48:16;102352.25;;;9.52;98.81
48053;BME280;33824;51.600;5.718;2023-02-03T00:50:47;102350.81;;;9.48;98.58
48053;BME280;33824;51.600;5.718;2023-02-03T00:53:12;102344.25;;;9.52;98.93
48053;BME280;33824;51.600;5.718;2023-02-03T00:55:38;102352.84;;;9.56;98.57
48053;BME280;33824;51.600;5.718;2023-02-03T00:58:04;102349.09;;;9.58;98.29
48053;BME280;33824;51.600;5.718;2023-02-03T01:00:29;102348.94;;;9.60;98.45
48053;BME280;33824;51.600;5.718;2023-02-03T01:02:55;102355.13;;;9.60;98.30
48053;BME280;33824;51.600;5.718;2023-02-03T01:05:22;102351.59;;;9.60;98.14
48053;BME280;33824;51.600;5.718;2023-02-03T01:07:47;102361.97;;;9.63;98.11
48053;BME280;33824;51.600;5.718;2023-02-03T01:10:13;102358.63;;;9.61;97.93
48053;BME280;33824;51.600;5.718;2023-02-03T01:12:39;102360.56;;;9.59;98.33
48053;BME280;33824;51.600;5.718;2023-02-03T01:15:05;102363.69;;;9.64;97.82
48053;BME280;33824;51.600;5.718;2023-02-03T01:17:31;102364.66;;;9.63;97.62
48053;BME280;33824;51.600;5.718;2023-02-03T01:19:57;102371.66;;;9.64;97.76
48053;BME280;33824;51.600;5.718;2023-02-03T01:22:22;102373.47;;;9.63;97.76
48053;BME280;33824;51.600;5.718;2023-02-03T01:24:48;102353.88;;;9.64;97.64
48053;BME280;33824;51.600;5.718;2023-02-03T01:27:13;102356.66;;;9.63;97.37
48053;BME280;33824;51.600;5.718;2023-02-03T01:29:41;102355.00;;;9.62;97.40
48053;BME280;33824;51.600;5.718;2023-02-03T01:32:06;102336.09;;;9.65;97.15
48053;BME280;33824;51.600;5.718;2023-02-03T01:34:35;102342.66;;;9.61;97.27
48053;BME280;33824;51.600;5.718;2023-02-03T01:37:00;102344.34;;;9.62;97.35
48053;BME280;33824;51.600;5.718;2023-02-03T01:39:26;102355.00;;;9.62;96.73
48053;BME280;33824;51.600;5.718;2023-02-03T01:41:54;102350.75;;;9.59;96.96
48053;BME280;33824;51.600;5.718;2023-02-03T01:47:13;102353.28;;;9.61;96.09
48053;BME280;33824;51.600;5.718;2023-02-03T01:49:45;102338.00;;;9.63;95.48
48053;BME280;33824;51.600;5.718;2023-02-03T01:52:12;102342.38;;;9.64;95.70
48053;BME280;33824;51.600;5.718;2023-02-03T01:54:40;102344.34;;;9.62;95.60
48053;BME280;33824;51.600;5.718;2023-02-03T01:57:32;102336.53;;;9.49;95.80
48053;BME280;33824;51.600;5.718;2023-02-03T02:00:00;102321.34;;;9.61;95.77
48053;BME280;33824;51.600;5.718;2023-02-03T02:02:26;102326.50;;;9.62;95.81
48053;BME280;33824;51.600;5.718;2023-02-03T02:05:04;102317.63;;;9.52;95.21
48053;BME280;33824;51.600;5.718;2023-02-03T02:07:31;102300.88;;;9.61;95.49
48053;BME280;33824;51.600;5.718;2023-02-03T02:09:58;102298.06;;;9.63;95.07
48053;BME280;33824;51.600;5.718;2023-02-03T02:12:24;102298.78;;;9.65;95.12
48053;BME280;33824;51.600;5.718;2023-02-03T02:14:49;102290.94;;;9.63;94.91
48053;BME280;33824;51.600;5.718;2023-02-03T02:17:36;102299.97;;;9.51;94.59
48053;BME280;33824;51.600;5.718;2023-02-03T02:20:37;102312.13;;;9.44;94.32
48053;BME280;33824;51.600;5.718;2023-02-03T02:23:24;102311.94;;;9.57;94.82
48053;BME280;33824;51.600;5.718;2023-02-03T02:26:12;102312.22;;;9.63;94.45
48053;BME280;33824;51.600;5.718;2023-02-03T02:28:57;102303.47;;;9.52;93.96
48053;BME280;33824;51.600;5.718;2023-02-03T02:32:01;102298.69;;;9.46;93.75
48053;BME280;33824;51.600;5.718;2023-02-03T02:37:18;102310.31;;;9.45;93.43
48053;BME280;33824;51.600;5.718;2023-02-03T02:42:35;102305.56;;;9.48;93.51
48053;BME280;33824;51.600;5.718;2023-02-03T02:45:15;102300.81;;;9.52;92.91
48053;BME280;33824;51.600;5.718;2023-02-03T02:47:42;102299.19;;;9.60;94.11
48053;BME280;33824;51.600;5.718;2023-02-03T02:50:15;102299.47;;;9.57;93.32
48053;BME280;33824;51.600;5.718;2023-02-03T02:52:43;102296.84;;;9.67;92.88
48053;BME280;33824;51.600;5.718;2023-02-03T02:55:20;102289.78;;;9.56;92.35
48053;BME280;33824;51.600;5.718;2023-02-03T02:57:54;102290.81;;;9.65;92.39
48053;BME280;33824;51.600;5.718;2023-02-03T03:00:21;102294.91;;;9.69;91.97
48053;BME280;33824;51.600;5.718;2023-02-03T03:02:47;102296.44;;;9.72;91.56
48053;BME280;33824;51.600;5.718;2023-02-03T03:05:13;102294.63;;;9.72;91.17
48053;BME280;33824;51.600;5.718;2023-02-03T03:07:47;102312.41;;;9.72;90.85
48053;BME280;33824;51.600;5.718;2023-02-03T03:10:18;102319.44;;;9.73;90.97
48053;BME280;33824;51.600;5.718;2023-02-03T03:12:52;102308.47;;;9.66;91.18
48053;BME280;33824;51.600;5.718;2023-02-03T03:15:19;102313.03;;;9.34;92.20
48053;BME280;33824;51.600;5.718;2023-02-03T03:17:54;102301.09;;;9.49;92.00
48053;BME280;33824;51.600;5.718;2023-02-03T03:20:24;102295.41;;;9.63;92.12
48053;BME280;33824;51.600;5.718;2023-02-03T03:23:02;102283.75;;;9.54;91.18
48053;BME280;33824;51.600;5.718;2023-02-03T03:25:42;102270.47;;;9.64;91.46
48053;BME280;33824;51.600;5.718;2023-02-03T03:28:15;102261.34;;;9.67;91.24
48053;BME280;33824;51.600;5.718;2023-02-03T03:30:41;102272.75;;;9.69;91.96
48053;BME280;33824;51.600;5.718;2023-02-03T03:33:08;102261.13;;;9.70;91.49
48053;BME280;33824;51.600;5.718;2023-02-03T03:38:35;102249.84;;;9.56;91.23
48053;BME280;33824;51.600;5.718;2023-02-03T03:41:24;102259.34;;;9.49;91.31
48053;BME280;33824;51.600;5.718;2023-02-03T03:43:54;102273.59;;;9.69;90.94
48053;BME280;33824;51.600;5.718;2023-02-03T03:46:47;102267.50;;;9.57;90.23
48053;BME280;33824;51.600;5.718;2023-02-03T03:49:15;102271.50;;;9.73;91.27
48053;BME280;33824;51.600;5.718;2023-02-03T03:51:47;102272.34;;;9.73;90.50
48053;BME280;33824;51.600;5.718;2023-02-03T03:54:16;102288.19;;;9.75;90.42
48053;BME280;33824;51.600;5.718;2023-02-03T03:56:52;102286.34;;;9.75;90.60
48053;BME280;33824;51.600;5.718;2023-02-03T03:59:23;102292.25;;;9.79;90.50
48053;BME280;33824;51.600;5.718;2023-02-03T04:01:50;102293.00;;;9.90;90.03
48053;BME280;33824;51.600;5.718;2023-02-03T04:04:17;102283.59;;;9.86;90.09
48053;BME280;33824;51.600;5.718;2023-02-03T04:06:43;102291.31;;;9.89;90.23
48053;BME280;33824;51.600;5.718;2023-02-03T04:09:09;102285.28;;;9.87;90.34
48053;BME280;33824;51.600;5.718;2023-02-03T04:11:35;102306.59;;;9.87;90.54
48053;BME280;33824;51.600;5.718;2023-02-03T04:14:19;102297.31;;;9.82;90.77
48053;BME280;33824;51.600;5.718;2023-02-03T04:16:44;102289.38;;;9.91;89.96
48053;BME280;33824;51.600;5.718;2023-02-03T04:19:10;102310.56;;;9.93;90.07
48053;BME280;33824;51.600;5.718;2023-02-03T04:21:35;102314.78;;;9.95;89.75
48053;BME280;33824;51.600;5.718;2023-02-03T04:24:01;102300.59;;;9.95;89.83
48053;BME280;33824;51.600;5.718;2023-02-03T04:26:26;102313.34;;;9.91;90.28
48053;BME280;33824;51.600;5.718;2023-02-03T04:28:52;102302.41;;;9.94;89.71
48053;BME280;33824;51.600;5.718;2023-02-03T04:31:18;102303.16;;;9.96;89.81
48053;BME280;33824;51.600;5.718;2023-02-03T04:33:43;102309.28;;;9.97;89.51
48053;BME280;33824;51.600;5.718;2023-02-03T04:36:09;102311.97;;;9.97;89.60
48053;BME280;33824;51.600;5.718;2023-02-03T04:38:34;102307.34;;;9.99;89.54
48053;BME280;33824;51.600;5.718;2023-02-03T04:41:00;102299.47;;;9.97;89.22
48053;BME280;33824;51.600;5.718;2023-02-03T04:43:26;102313.81;;;9.96;89.64
48053;BME280;33824;51.600;5.718;2023-02-03T04:45:51;102314.09;;;10.03;89.01
48053;BME280;33824;51.600;5.718;2023-02-03T04:48:17;102310.28;;;9.96;89.34
48053;BME280;33824;51.600;5.718;2023-02-03T04:50:42;102290.53;;;9.98;89.26
48053;BME280;33824;51.600;5.718;2023-02-03T04:53:08;102288.13;;;9.95;89.42
48053;BME280;33824;51.600;5.718;2023-02-03T04:55:33;102289.56;;;9.99;89.03
48053;BME280;33824;51.600;5.718;2023-02-03T04:58:00;102272.84;;;9.97;89.04
48053;BME280;33824;51.600;5.718;2023-02-03T05:00:26;102286.03;;;9.99;88.81
48053;BME280;33824;51.600;5.718;2023-02-03T05:02:52;102279.59;;;10.01;88.85
48053;BME280;33824;51.600;5.718;2023-02-03T05:05:18;102265.97;;;9.95;89.34
48053;BME280;33824;51.600;5.718;2023-02-03T05:07:44;102269.06;;;10.00;89.25
48053;BME280;33824;51.600;5.718;2023-02-03T05:10:09;102263.75;;;10.00;89.14
48053;BME280;33824;51.600;5.718;2023-02-03T05:12:35;102270.16;;;9.97;89.00
48053;BME280;33824;51.600;5.718;2023-02-03T05:15:00;102279.47;;;10.03;88.73
48053;BME280;33824;51.600;5.718;2023-02-03T05:17:26;102276.50;;;10.06;88.73
48053;BME280;33824;51.600;5.718;2023-02-03T05:19:52;102280.31;;;10.03;88.67
48053;BME280;33824;51.600;5.718;2023-02-03T05:22:17;102286.72;;;10.01;89.09
48053;BME280;33824;51.600;5.718;2023-02-03T05:24:43;102288.16;;;10.05;88.86
48053;BME280;33824;51.600;5.718;2023-02-03T05:27:08;102290.69;;;10.06;89.11
48053;BME280;33824;51.600;5.718;2023-02-03T05:29:34;102289.84;;;10.06;88.68
48053;BME280;33824;51.600;5.718;2023-02-03T05:31:59;102298.56;;;10.08;88.77
48053;BME280;33824;51.600;5.718;2023-02-03T05:34:25;102300.38;;;10.07;89.12
48053;BME280;33824;51.600;5.718;2023-02-03T05:36:50;102304.13;;;10.05;88.75
48053;BME280;33824;51.600;5.718;2023-02-03T05:39:16;102292.50;;;10.06;88.54
48053;BME280;33824;51.600;5.718;2023-02-03T05:41:42;102293.47;;;10.05;88.58
48053;BME280;33824;51.600;5.718;2023-02-03T05:44:24;102294.19;;;10.07;88.31
48053;BME280;33824;51.600;5.718;2023-02-03T05:46:52;102313.72;;;10.07;88.80
48053;BME280;33824;51.600;5.718;2023-02-03T05:49:18;102306.81;;;10.05;88.83
48053;BME280;33824;51.600;5.718;2023-02-03T05:51:50;102304.97;;;9.66;89.39
48053;BME280;33824;51.600;5.718;2023-02-03T05:54:20;102313.09;;;9.94;89.62
48053;BME280;33824;51.600;5.718;2023-02-03T05:56:46;102303.16;;;9.96;89.24
48053;BME280;33824;51.600;5.718;2023-02-03T05:59:11;102288.44;;;10.02;88.85
48053;BME280;33824;51.600;5.718;2023-02-03T06:01:37;102299.09;;;10.02;88.62
48053;BME280;33824;51.600;5.718;2023-02-03T06:04:03;102288.03;;;10.06;88.62
48053;BME280;33824;51.600;5.718;2023-02-03T06:06:29;102293.19;;;9.98;89.63
48053;BME280;33824;51.600;5.718;2023-02-03T06:09:03;102260.25;;;9.99;88.99
48053;BME280;33824;51.600;5.718;2023-02-03T06:11:29;102291.81;;;10.04;88.93
48053;BME280;33824;51.600;5.718;2023-02-03T06:13:56;102293.19;;;9.98;89.35
48053;BME280;33824;51.600;5.718;2023-02-03T06:16:26;102297.25;;;10.02;88.82
48053;BME280;33824;51.600;5.718;2023-02-03T06:18:54;102297.53;;;9.99;88.95
48053;BME280;33824;51.600;5.718;2023-02-03T06:21:22;102309.63;;;10.03;88.91
48053;BME280;33824;51.600;5.718;2023-02-03T06:23:48;102297.97;;;10.04;88.57
48053;BME280;33824;51.600;5.718;2023-02-03T06:26:14;102291.81;;;10.04;88.61
48053;BME280;33824;51.600;5.718;2023-02-03T06:28:40;102287.56;;;10.01;89.02
48053;BME280;33824;51.600;5.718;2023-02-03T06:31:06;102270.91;;;9.99;89.50
48053;BME280;33824;51.600;5.718;2023-02-03T06:33:31;102269.66;;;10.03;89.00
48053;BME280;33824;51.600;5.718;2023-02-03T06:35:58;102282.97;;;10.03;88.95
48053;BME280;33824;51.600;5.718;2023-02-03T06:38:23;102273.28;;;10.02;89.10
48053;BME280;33824;51.600;5.718;2023-02-03T06:40:49;102278.34;;;10.05;88.68
48053;BME280;33824;51.600;5.718;2023-02-03T06:43:15;102290.13;;;10.03;88.82
48053;BME280;33824;51.600;5.718;2023-02-03T06:45:40;102305.13;;;10.04;89.14
48053;BME280;33824;51.600;5.718;2023-02-03T06:48:08;102291.94;;;10.02;89.36
48053;BME280;33824;51.600;5.718;2023-02-03T06:50:34;102302.88;;;9.99;89.61
48053;BME280;33824;51.600;5.718;2023-02-03T06:53:00;102292.22;;;9.99;89.91
48053;BME280;33824;51.600;5.718;2023-02-03T06:55:25;102286.03;;;9.99;89.66
48053;BME280;33824;51.600;5.718;2023-02-03T06:57:51;102291.94;;;10.02;89.21
48053;BME280;33824;51.600;5.718;2023-02-03T07:00:17;102305.25;;;10.02;89.44
48053;BME280;33824;51.600;5.718;2023-02-03T07:02:43;102302.59;;;10.02;89.24
48053;BME280;33824;51.600;5.718;2023-02-03T07:05:09;102310.19;;;10.07;89.37
48053;BME280;33824;51.600;5.718;2023-02-03T07:07:35;102320.97;;;10.05;89.60
48053;BME280;33824;51.600;5.718;2023-02-03T07:10:01;102334.03;;;10.08;89.60
48053;BME280;33824;51.600;5.718;2023-02-03T07:12:27;102334.44;;;10.04;89.80
48053;BME280;33824;51.600;5.718;2023-02-03T07:14:53;102331.06;;;10.02;89.62
48053;BME280;33824;51.600;5.718;2023-02-03T07:17:18;102329.13;;;10.04;89.76
48053;BME280;33824;51.600;5.718;2023-02-03T07:19:44;102340.47;;;10.06;89.65
48053;BME280;33824;51.600;5.718;2023-02-03T07:22:10;102341.19;;;10.08;89.87
48053;BME280;33824;51.600;5.718;2023-02-03T07:24:36;102318.47;;;10.04;89.86
48053;BME280;33824;51.600;5.718;2023-02-03T07:27:02;102326.19;;;10.07;90.07
48053;BME280;33824;51.600;5.718;2023-02-03T07:29:30;102327.59;;;10.11;89.69
48053;BME280;33824;51.600;5.718;2023-02-03T07:31:55;102314.78;;;10.05;90.13
48053;BME280;33824;51.600;5.718;2023-02-03T07:34:21;102317.34;;;10.06;90.33
48053;BME280;33824;51.600;5.718;2023-02-03T07:36:47;102328.41;;;10.02;90.35
48053;BME280;33824;51.600;5.718;2023-02-03T07:39:12;102325.91;;;10.10;90.10
48053;BME280;33824;51.600;5.718;2023-02-03T07:41:38;102343.72;;;10.09;90.28
48053;BME280;33824;51.600;5.718;2023-02-03T07:44:04;102342.03;;;10.08;90.46
48053;BME280;33824;51.600;5.718;2023-02-03T07:46:30;102344.84;;;10.07;90.68
48053;BME280;33824;51.600;5.718;2023-02-03T07:48:56;102327.72;;;10.09;90.52
48053;BME280;33824;51.600;5.718;2023-02-03T07:51:21;102346.25;;;10.11;90.31
48053;BME280;33824;51.600;5.718;2023-02-03T07:53:47;102348.78;;;10.12;90.25
48053;BME280;33824;51.600;5.718;2023-02-03T07:56:12;102364.75;;;10.12;90.48
48053;BME280;33824;51.600;5.718;2023-02-03T07:58:38;102355.56;;;10.17;90.46
48053;BME280;33824;51.600;5.718;2023-02-03T08:01:22;102363.88;;;10.02;89.95
48053;BME280;33824;51.600;5.718;2023-02-03T08:03:47;102354.19;;;10.22;89.99
48053;BME280;33824;51.600;5.718;2023-02-03T08:06:13;102361.59;;;10.19;90.28
48053;BME280;33824;51.600;5.718;2023-02-03T08:08:38;102361.47;;;10.20;90.46
48053;BME280;33824;51.600;5.718;2023-02-03T08:11:05;102348.84;;;10.22;90.21
48053;BME280;33824;51.600;5.718;2023-02-03T08:13:31;102360.59;;;10.20;90.74
48053;BME280;33824;51.600;5.718;2023-02-03T08:15:56;102348.69;;;10.24;90.84
48053;BME280;33824;51.600;5.718;2023-02-03T08:18:24;102361.06;;;10.25;90.65
48053;BME280;33824;51.600;5.718;2023-02-03T08:20:52;102369.78;;;10.27;91.00
48053;BME280;33824;51.600;5.718;2023-02-03T08:23:17;102354.88;;;10.24;90.67
48053;BME280;33824;51.600;5.718;2023-02-03T08:25:43;102352.50;;;10.21;91.13
48053;BME280;33824;51.600;5.718;2023-02-03T08:28:09;102377.31;;;10.22;91.34
48053;BME280;33824;51.600;5.718;2023-02-03T08:30:34;102379.72;;;10.25;90.92
48053;BME280;33824;51.600;5.718;2023-02-03T08:33:00;102376.94;;;10.26;90.60
48053;BME280;33824;51.600;5.718;2023-02-03T08:35:26;102395.44;;;10.28;90.76
48053;BME280;33824;51.600;5.718;2023-02-03T08:37:51;102394.47;;;10.29;91.02
48053;BME280;33824;51.600;5.718;2023-02-03T08:40:17;102403.44;;;10.28;91.23
48053;BME280;33824;51.600;5.718;2023-02-03T08:42:42;102403.31;;;10.29;91.49
48053;BME280;33824;51.600;5.718;2023-02-03T08:45:08;102391.22;;;10.25;91.56
48053;BME280;33824;51.600;5.718;2023-02-03T08:47:34;102403.31;;;10.29;91.59
48053;BME280;33824;51.600;5.718;2023-02-03T08:50:05;102393.22;;;10.33;91.68
48053;BME280;33824;51.600;5.718;2023-02-03T08:52:31;102391.69;;;10.30;91.86
48053;BME280;33824;51.600;5.718;2023-02-03T08:54:56;102394.19;;;10.32;91.76
48053;BME280;33824;51.600;5.718;2023-02-03T08:57:22;102390.56;;;10.33;91.64
48053;BME280;33824;51.600;5.718;2023-02-03T08:59:47;102384.53;;;10.31;92.13
48053;BME280;33824;51.600;5.718;2023-02-03T09:02:16;102386.47;;;10.29;92.00
48053;BME280;33824;51.600;5.718;2023-02-03T09:04:43;102388.16;;;10.30;92.29
48053;BME280;33824;51.600;5.718;2023-02-03T09:07:10;102386.91;;;10.34;92.33
48053;BME280;33824;51.600;5.718;2023-02-03T09:09:36;102386.75;;;10.35;92.43
48053;BME280;33824;51.600;5.718;2023-02-03T09:12:04;102395.50;;;10.37;92.06
48053;BME280;33824;51.600;5.718;2023-02-03T09:14:33;102391.41;;;10.33;91.81
48053;BME280;33824;51.600;5.718;2023-02-03T09:17:00;102396.91;;;10.41;92.12
48053;BME280;33824;51.600;5.718;2023-02-03T09:19:28;102406.00;;;10.39;92.15
48053;BME280;33824;51.600;5.718;2023-02-03T09:21:53;102416.53;;;10.40;92.16
48053;BME280;33824;51.600;5.718;2023-02-03T09:24:21;102424.16;;;10.45;92.01
48053;BME280;33824;51.600;5.718;2023-02-03T09:26:48;102419.94;;;10.42;92.02
48053;BME280;33824;51.600;5.718;2023-02-03T09:29:13;102422.44;;;10.44;92.01
48053;BME280;33824;51.600;5.718;2023-02-03T09:31:39;102429.59;;;10.43;92.00
48053;BME280;33824;51.600;5.718;2023-02-03T09:34:05;102430.06;;;10.48;92.27
48053;BME280;33824;51.600;5.718;2023-02-03T09:36:31;102431.75;;;10.49;92.24
48053;BME280;33824;51.600;5.718;2023-02-03T09:38:56;102430.34;;;10.55;92.38
48053;BME280;33824;51.600;5.718;2023-02-03T09:44:27;102428.66;;;10.54;91.79
48053;BME280;33824;51.600;5.718;2023-02-03T09:47:03;102434.16;;;10.52;91.47
48053;BME280;33824;51.600;5.718;2023-02-03T09:49:39;102427.50;;;10.47;91.92
48053;BME280;33824;51.600;5.718;2023-02-03T09:54:57;102425.00;;;10.45;92.40
48053;BME280;33824;51.600;5.718;2023-02-03T09:57:28;102414.50;;;10.53;92.16
48053;BME280;33824;51.600;5.718;2023-02-03T09:59:56;102406.34;;;10.55;92.78
48053;BME280;33824;51.600;5.718;2023-02-03T10:02:36;102413.94;;;10.50;92.43
48053;BME280;33824;51.600;5.718;2023-02-03T10:05:21;102417.75;;;10.57;92.18
48053;BME280;33824;51.600;5.718;2023-02-03T10:10:38;102411.03;;;10.72;91.46
48053;BME280;33824;51.600;5.718;2023-02-03T10:13:20;102435.75;;;10.74;90.91
48053;BME280;33824;51.600;5.718;2023-02-03T10:15:58;102404.88;;;10.81;91.06
48053;BME280;33824;51.600;5.718;2023-02-03T10:18:30;102428.47;;;10.86;91.31
48053;BME280;33824;51.600;5.718;2023-02-03T10:21:01;102427.91;;;10.92;90.83
48053;BME280;33824;51.600;5.718;2023-02-03T10:23:34;102425.00;;;11.04;90.57
48053;BME280;33824;51.600;5.718;2023-02-03T10:26:06;102422.72;;;11.00;89.57
48053;BME280;33824;51.600;5.718;2023-02-03T10:28:39;102428.91;;;11.00;90.36
48053;BME280;33824;51.600;5.718;2023-02-03T10:31:19;102410.38;;;10.99;90.14
48053;BME280;33824;51.600;5.718;2023-02-03T10:33:46;102421.50;;;11.23;90.39
48053;BME280;33824;51.600;5.718;2023-02-03T10:36:16;102424.19;;;11.33;89.56
48053;BME280;33824;51.600;5.718;2023-02-03T10:38:50;102433.72;;;11.26;89.99
48053;BME280;33824;51.600;5.718;2023-02-03T10:41:21;102422.78;;;11.29;89.21
48053;BME280;33824;51.600;5.718;2023-02-03T10:43:49;102422.06;;;11.36;88.89
48053;BME280;33824;51.600;5.718;2023-02-03T10:46:28;102428.94;;;11.39;89.00
48053;BME280;33824;51.600;5.718;2023-02-03T10:48:55;102418.97;;;11.41;89.00
48053;BME280;33824;51.600;5.718;2023-02-03T10:51:23;102427.41;;;11.55;88.69
48053;BME280;33824;51.600;5.718;2023-02-03T10:53:50;102424.88;;;11.64;88.57
48053;BME280;33824;51.600;5.718;2023-02-03T10:56:37;102422.03;;;11.46;88.21
48053;BME280;33824;51.600;5.718;2023-02-03T10:59:04;102424.16;;;11.62;88.47
48053;BME280;33824;51.600;5.718;2023-02-03T11:01:43;102422.47;;;11.41;87.65
48053;BME280;33824;51.600;5.718;2023-02-03T11:04:31;102466.06;;;11.51;88.08
48053;BME280;33824;51.600;5.718;2023-02-03T11:07:03;102431.19;;;11.63;88.23
48053;BME280;33824;51.600;5.718;2023-02-03T11:09:40;102453.81;;;11.68;87.74
48053;BME280;33824;51.600;5.718;2023-02-03T11:14:39;102441.59;;;11.27;88.00
48053;BME280;33824;51.600;5.718;2023-02-03T11:17:17;102451.59;;;11.44;87.69
48053;BME280;33824;51.600;5.718;2023-02-03T11:19:48;102442.41;;;11.56;87.91
48053;BME280;33824;51.600;5.718;2023-02-03T11:22:36;102428.41;;;11.45;87.74
48053;BME280;33824;51.600;5.718;2023-02-03T11:25:13;102445.09;;;11.56;88.23
48053;BME280;33824;51.600;5.718;2023-02-03T11:27:41;102434.41;;;11.66;88.04
48053;BME280;33824;51.600;5.718;2023-02-03T11:30:15;102436.38;;;11.54;87.93
48053;BME280;33824;51.600;5.718;2023-02-03T11:32:42;102434.13;;;11.69;87.65
48053;BME280;33824;51.600;5.718;2023-02-03T11:35:16;102441.88;;;11.63;87.70
48053;BME280;33824;51.600;5.718;2023-02-03T11:37:47;102446.38;;;11.62;87.39
48053;BME280;33824;51.600;5.718;2023-02-03T11:42:41;102454.97;;;11.75;87.61
48053;BME280;33824;51.600;5.718;2023-02-03T11:45:14;102445.41;;;11.82;87.21
48053;BME280;33824;51.600;5.718;2023-02-03T11:47:48;102435.25;;;11.76;86.95
48053;BME280;33824;51.600;5.718;2023-02-03T11:50:29;102450.63;;;11.74;87.12
48053;BME280;33824;51.600;5.718;2023-02-03T11:55:52;102449.75;;;11.64;87.70
48053;BME280;33824;51.600;5.718;2023-02-03T12:01:17;102446.22;;;11.54;87.54
48053;BME280;33824;51.600;5.718;2023-02-03T12:14:46;102435.97;;;11.49;87.99
48053;BME280;33824;51.600;5.718;2023-02-03T12:17:36;102442.28;;;11.58;88.25
48053;BME280;33824;51.600;5.718;2023-02-03T12:20:13;102436.53;;;11.72;88.66
48053;BME280;33824;51.600;5.718;2023-02-03T12:23:28;102436.66;;;11.61;87.63
48053;BME280;33824;51.600;5.718;2023-02-03T12:26:05;102423.31;;;11.71;87.76
48053;BME280;33824;51.600;5.718;2023-02-03T12:28:46;102428.94;;;11.68;87.91
48053;BME280;33824;51.600;5.718;2023-02-03T12:31:37;102441.59;;;11.66;87.38
48053;BME280;33824;51.600;5.718;2023-02-03T12:34:23;102446.91;;;11.66;87.88
48053;BME280;33824;51.600;5.718;2023-02-03T12:37:01;102461.31;;;11.74;88.15
48053;BME280;33824;51.600;5.718;2023-02-03T12:39:35;102451.28;;;11.76;87.66
48053;BME280;33824;51.600;5.718;2023-02-03T12:44:57;102472.50;;;11.68;87.64
48053;BME280;33824;51.600;5.718;2023-02-03T12:47:33;102459.88;;;11.70;88.03
48053;BME280;33824;51.600;5.718;2023-02-03T12:50:13;102463.94;;;11.65;87.74
48053;BME280;33824;51.600;5.718;2023-02-03T12:52:48;102464.94;;;11.64;87.89
48053;BME280;33824;51.600;5.718;2023-02-03T12:58:09;102470.56;;;11.80;87.77
48053;BME280;33824;51.600;5.718;2023-02-03T13:00:40;102466.50;;;11.85;87.97
48053;BME280;33824;51.600;5.718;2023-02-03T13:06:11;102462.28;;;11.73;87.20
48053;BME280;33824;51.600;5.718;2023-02-03T13:08:49;102474.50;;;11.85;87.51
48053;BME280;33824;51.600;5.718;2023-02-03T13:11:22;102470.28;;;11.92;87.67
48053;BME280;33824;51.600;5.718;2023-02-03T13:14:14;102473.94;;;11.82;86.99
48053;BME280;33824;51.600;5.718;2023-02-03T13:16:45;102483.50;;;11.94;87.85
48053;BME280;33824;51.600;5.718;2023-02-03T13:19:26;102492.63;;;11.91;87.47
48053;BME280;33824;51.600;5.718;2023-02-03T13:21:53;102493.06;;;11.96;87.61
48053;BME280;33824;51.600;5.718;2023-02-03T13:24:22;102481.00;;;11.83;87.85
48053;BME280;33824;51.600;5.718;2023-02-03T13:27:22;102484.22;;;11.77;87.83
48053;BME280;33824;51.600;5.718;2023-02-03T13:38:23;102496.16;;;11.92;87.72
48053;BME280;33824;51.600;5.718;2023-02-03T13:41:05;102492.63;;;11.91;87.27
48053;BME280;33824;51.600;5.718;2023-02-03T13:43:35;102480.38;;;11.98;87.44
48053;BME280;33824;51.600;5.718;2023-02-03T13:46:02;102490.94;;;12.00;87.65
48053;BME280;33824;51.600;5.718;2023-02-03T13:48:30;102494.75;;;11.97;87.57
48053;BME280;33824;51.600;5.718;2023-02-03T13:51:06;102498.56;;;11.85;87.27
48053;BME280;33824;51.600;5.718;2023-02-03T13:53:38;102496.16;;;11.92;87.19
48053;BME280;33824;51.600;5.718;2023-02-03T13:56:07;102499.53;;;11.94;87.27
48053;BME280;33824;51.600;5.718;2023-02-03T13:58:37;102497.41;;;11.88;87.50
48053;BME280;33824;51.600;5.718;2023-02-03T14:03:56;102490.66;;;12.03;87.57
48053;BME280;33824;51.600;5.718;2023-02-03T14:09:22;102499.38;;;11.95;86.81
48053;BME280;33824;51.600;5.718;2023-02-03T14:11:50;102500.78;;;12.09;86.91
48053;BME280;33824;51.600;5.718;2023-02-03T14:16:51;102500.19;;;12.15;86.98